createdAt,value
2023-02-07T00:10:58.878Z,627.00
2023-02-07T00:11:58.855Z,627.00
2023-02-07T00:12:58.816Z,624.00
2023-02-07T00:13:58.831Z,625.00
2023-02-07T00:14:58.752Z,621.00
2023-02-07T00:15:58.697Z,625.00
2023-02-07T00:16:58.657Z,628.00
2023-02-07T00:17:58.616Z,628.00
2023-02-07T00:19:00.324Z,624.00
2023-02-07T00:19:58.559Z,625.00
2023-02-07T00:20:58.523Z,616.00
2023-02-07T00:21:58.480Z,624.00
2023-02-07T00:22:58.430Z,621.00
2023-02-07T00:23:58.401Z,625.00
2023-02-07T00:24:58.371Z,621.00
2023-02-07T00:25:58.350Z,623.00
2023-02-07T00:26:58.294Z,624.00
2023-02-07T00:27:58.344Z,618.00
2023-02-07T00:28:58.265Z,625.00
2023-02-07T00:29:58.178Z,612.00
2023-02-07T00:30:58.204Z,620.00
2023-02-07T00:31:58.106Z,620.00
2023-02-07T00:32:58.072Z,620.00
2023-02-07T00:33:58.040Z,621.00
2023-02-07T00:34:58.008Z,620.00
2023-02-07T00:35:57.969Z,621.00
2023-02-07T00:36:57.934Z,622.00
2023-02-07T00:37:57.905Z,625.00
2023-02-07T00:38:57.867Z,619.00
2023-02-07T00:39:57.815Z,616.00
2023-02-07T04:15:50.691Z,527.00
2023-02-07T04:16:50.656Z,527.00
2023-02-07T04:17:50.625Z,506.00
2023-02-07T04:18:50.605Z,508.00
2023-02-07T04:19:50.566Z,520.00
2023-02-07T04:20:50.531Z,517.00
2023-02-07T04:21:50.509Z,522.00
2023-02-07T04:22:50.490Z,524.00
2023-02-07T04:23:50.467Z,510.00
2023-02-07T04:24:50.438Z,519.00
2023-02-07T04:25:50.410Z,528.00
2023-02-07T04:26:50.367Z,529.00
2023-02-07T04:27:50.372Z,529.00
2023-02-07T04:28:50.315Z,522.00
2023-02-07T04:29:50.290Z,507.00
2023-02-07T04:30:50.278Z,514.00
2023-02-07T04:31:50.297Z,514.00
2023-02-07T04:32:50.203Z,524.00
2023-02-07T04:33:50.171Z,527.00
2023-02-07T04:34:50.140Z,510.00
2023-02-07T04:35:50.109Z,500.00
2023-02-07T04:36:50.088Z,513.00
2023-02-07T04:37:50.059Z,517.00
2023-02-07T04:38:50.027Z,519.00
2023-02-07T04:39:49.998Z,515.00
2023-02-07T04:40:49.981Z,500.00
2023-02-07T04:41:49.952Z,507.00
2023-02-07T04:42:49.909Z,506.00
2023-02-07T04:43:49.882Z,513.00
2023-02-07T04:44:49.861Z,517.00
2023-02-07T04:45:49.840Z,511.00
2023-02-07T04:46:49.794Z,500.00
2023-02-07T04:47:49.759Z,506.00
2023-02-07T04:48:49.728Z,507.00
2023-02-07T04:49:49.723Z,509.00
2023-02-07T04:50:49.694Z,513.00
2023-02-07T04:51:49.657Z,524.00
2023-02-07T04:52:49.628Z,515.00
2023-02-07T04:53:49.596Z,519.00
2023-02-07T04:54:49.576Z,524.00
2023-02-07T04:55:49.539Z,526.00
2023-02-07T04:56:49.509Z,529.00
2023-02-07T04:57:49.477Z,524.00
2023-02-07T04:58:49.457Z,503.00
2023-02-07T04:59:49.431Z,508.00
2023-02-07T05:00:49.438Z,519.00
2023-02-07T05:01:49.369Z,524.00
2023-02-07T05:02:49.330Z,527.00
2023-02-07T05:03:49.298Z,512.00
2023-02-07T05:04:49.351Z,512.00
2023-02-07T05:05:49.243Z,511.00
2023-02-07T05:06:49.211Z,510.00
2023-02-07T05:07:49.168Z,515.00
2023-02-07T05:08:49.149Z,528.00
2023-02-07T05:09:49.115Z,502.00
2023-02-07T05:10:49.086Z,502.00
2023-02-07T05:11:49.049Z,518.00
2023-02-07T05:12:49.016Z,518.00
2023-02-07T05:13:48.986Z,522.00
2023-02-07T05:14:48.952Z,525.00
2023-02-07T05:15:48.933Z,508.00
2023-02-07T05:16:48.930Z,510.00
2023-02-07T05:17:48.879Z,515.00
2023-02-07T05:18:48.852Z,520.00
2023-02-07T05:19:48.826Z,518.00
2023-02-07T05:20:50.800Z,527.00
2023-02-07T05:21:48.762Z,520.00
2023-02-07T05:22:48.721Z,500.00
2023-02-07T05:23:48.693Z,500.00
2023-02-07T05:24:48.659Z,504.00
2023-02-07T05:25:48.628Z,508.00
2023-02-07T05:26:48.607Z,518.00
2023-02-07T05:27:48.592Z,515.00
2023-02-07T05:28:48.564Z,519.00
2023-02-07T05:29:48.523Z,525.00
2023-02-07T05:30:48.646Z,532.00
2023-02-07T05:31:48.620Z,528.00
2023-02-07T05:32:48.434Z,517.00
2023-02-07T05:33:48.392Z,510.00
2023-02-07T05:34:48.373Z,523.00
2023-02-07T05:35:48.340Z,525.00
2023-02-07T05:36:48.298Z,529.00
2023-02-07T05:37:48.273Z,531.00
2023-02-07T05:38:48.249Z,516.00
2023-02-07T05:39:48.234Z,514.00
2023-02-07T05:40:48.206Z,524.00
2023-02-07T05:41:48.163Z,524.00
2023-02-07T05:42:48.136Z,526.00
2023-02-07T05:43:48.108Z,530.00
2023-02-07T05:44:48.086Z,517.00
2023-02-07T05:45:48.080Z,511.00
2023-02-07T05:46:48.047Z,518.00
2023-02-07T05:47:48.008Z,523.00
2023-02-07T05:48:47.987Z,525.00
2023-02-07T05:49:47.930Z,529.00
2023-02-07T05:50:47.928Z,515.00
2023-02-07T05:51:47.877Z,511.00
2023-02-07T05:52:47.857Z,524.00
2023-02-07T05:53:47.818Z,525.00
2023-02-07T08:36:41.197Z,871.00
2023-02-07T08:37:41.157Z,852.00
2023-02-07T08:38:41.131Z,799.00
2023-02-07T08:39:41.060Z,813.00
2023-02-07T08:40:41.273Z,813.00
2023-02-07T08:41:40.971Z,780.00
2023-02-07T08:42:40.928Z,875.00
2023-02-07T08:43:40.872Z,893.00
2023-02-07T08:44:40.833Z,843.00
2023-02-07T08:45:40.981Z,737.00
2023-02-07T08:46:40.728Z,746.00
2023-02-07T08:47:40.670Z,766.00
2023-02-07T08:48:40.633Z,824.00
2023-02-07T08:49:40.771Z,838.00
2023-02-07T08:50:40.912Z,722.00
2023-02-07T08:51:40.465Z,700.00
2023-02-07T08:52:40.429Z,736.00
2023-02-07T08:53:40.372Z,744.00
2023-02-07T08:54:40.305Z,802.00
2023-02-07T08:55:40.242Z,729.00
2023-02-07T08:56:40.223Z,707.00
2023-02-07T08:57:40.143Z,720.00
2023-02-07T08:58:40.069Z,789.00
2023-02-07T08:59:40.037Z,810.00
2023-02-07T09:00:40.317Z,844.00
2023-02-07T09:01:39.913Z,759.00
2023-02-07T09:02:39.914Z,714.00
2023-02-07T09:03:39.802Z,725.00
2023-02-07T09:04:39.746Z,757.00
2023-02-07T09:05:39.701Z,781.00
2023-02-07T09:06:39.643Z,807.00
2023-02-07T09:07:39.600Z,741.00
2023-02-07T09:08:39.551Z,677.00
2023-02-07T09:09:39.511Z,680.00
2023-02-07T09:10:39.745Z,718.00
2023-02-07T09:11:39.424Z,756.00
2023-02-07T09:12:39.371Z,761.00
2023-02-07T09:13:39.263Z,703.00
2023-02-07T09:14:39.199Z,649.00
2023-02-07T09:15:39.140Z,652.00
2023-02-07T09:16:39.089Z,666.00
2023-02-07T09:17:39.016Z,725.00
2023-02-07T09:18:38.943Z,709.00
2023-02-07T09:19:38.917Z,631.00
2023-02-07T09:20:39.109Z,630.00
2023-02-07T09:21:38.813Z,637.00
2023-02-07T09:22:38.737Z,645.00
2023-02-07T09:23:38.650Z,661.00
2023-02-07T09:24:38.596Z,634.00
2023-02-07T09:25:38.521Z,618.00
2023-02-07T09:26:38.507Z,630.00
2023-02-07T09:27:38.427Z,654.00
2023-02-07T09:28:38.344Z,694.00
2023-02-07T09:29:38.275Z,730.00
2023-02-07T09:30:38.238Z,710.00
2023-02-07T09:31:38.280Z,800.00
2023-02-07T09:32:38.090Z,794.00
2023-02-07T09:33:38.033Z,826.00
2023-02-07T09:34:37.987Z,792.00
2023-02-07T09:35:37.923Z,796.00
2023-02-07T09:36:37.830Z,795.00
2023-02-07T09:38:37.712Z,900.00
2023-02-07T09:51:36.782Z,973.00
2023-02-07T09:52:36.714Z,958.00
2023-02-07T09:53:36.627Z,983.00
2023-02-07T09:54:36.552Z,1029.00
2023-02-07T09:55:36.669Z,1049.00
2023-02-07T09:56:36.377Z,1018.00
2023-02-07T09:57:36.306Z,1043.00
2023-02-07T09:58:36.207Z,1053.00
2023-02-07T09:59:36.157Z,1077.00
2023-02-07T10:00:36.118Z,1095.00
2023-02-07T10:01:36.023Z,1077.00
2023-02-07T10:02:35.961Z,1130.00
2023-02-07T10:03:35.807Z,1148.00
2023-02-07T10:04:35.731Z,1180.00
2023-02-07T10:05:35.722Z,1171.00
2023-02-07T10:06:35.575Z,1177.00
2023-02-07T10:07:35.614Z,1172.00
2023-02-07T10:08:40.794Z,1179.00
2023-02-07T10:09:36.358Z,1181.00
2023-02-07T10:10:35.269Z,1185.00
2023-02-07T10:11:35.209Z,1191.00
2023-02-07T10:12:35.104Z,1206.00
2023-02-07T10:13:35.041Z,1212.00
2023-02-07T10:14:34.967Z,1224.00
2023-02-07T10:15:34.906Z,1244.00
2023-02-07T10:16:34.811Z,1265.00
2023-02-07T10:17:34.734Z,1216.00
2023-02-07T10:18:34.639Z,1206.00
2023-02-07T10:19:34.569Z,1215.00
2023-02-07T10:20:34.558Z,1223.00
2023-02-07T10:21:34.462Z,1284.00
2023-02-07T10:22:34.367Z,1312.00
2023-02-07T10:23:34.309Z,1309.00
2023-02-07T10:24:34.200Z,1312.00
2023-02-07T10:25:34.137Z,1329.00
2023-02-07T10:26:34.129Z,1352.00
2023-02-07T10:27:33.998Z,1372.00
2023-02-07T10:28:33.912Z,1343.00
2023-02-07T10:29:33.898Z,1365.00
2023-02-07T10:30:33.957Z,1353.00
2023-02-07T10:31:33.871Z,1352.00
2023-02-07T10:32:33.705Z,1347.00
2023-02-07T10:33:33.725Z,1415.00
2023-02-07T10:34:33.501Z,1381.00
2023-02-07T10:35:33.448Z,1376.00
2023-02-07T10:36:33.350Z,1359.00
2023-02-07T10:37:33.281Z,1322.00
2023-02-07T10:38:33.204Z,1380.00
2023-02-07T10:39:33.142Z,1417.00
2023-02-07T10:40:33.878Z,1396.00
2023-02-07T10:41:32.983Z,1406.00
2023-02-07T10:42:32.962Z,1365.00
2023-02-07T10:43:32.853Z,1343.00
2023-02-07T10:44:32.763Z,1366.00
2023-02-07T10:45:32.713Z,1378.00
2023-02-07T10:46:32.671Z,1324.00
2023-02-07T10:47:32.529Z,1289.00
2023-02-07T10:48:32.445Z,1308.00
2023-02-07T10:49:32.401Z,1289.00
2023-02-07T10:50:32.286Z,1303.00
2023-02-07T10:51:32.217Z,1280.00
2023-02-07T10:52:32.262Z,1243.00
2023-02-07T10:53:32.045Z,1257.00
2023-02-07T10:54:31.922Z,1187.00
2023-02-07T10:55:31.842Z,1187.00
2023-02-07T10:56:31.761Z,1191.00
2023-02-07T10:57:31.655Z,1197.00
2023-02-07T10:58:31.556Z,1179.00
2023-02-07T10:59:31.488Z,1158.00
2023-02-07T11:00:31.369Z,1125.00
2023-02-07T11:01:31.424Z,1139.00
2023-02-07T11:02:31.263Z,1145.00
2023-02-07T11:03:31.085Z,1074.00
2023-02-07T11:04:30.991Z,1036.00
2023-02-07T11:05:30.895Z,1043.00
2023-02-07T11:06:30.784Z,1064.00
2023-02-07T11:07:39.447Z,1067.00
2023-02-07T11:08:31.581Z,1069.00
2023-02-07T11:09:30.534Z,1066.00
2023-02-07T11:10:30.393Z,1057.00
2023-02-07T11:11:30.292Z,1037.00
2023-02-07T11:12:30.190Z,1035.00
2023-02-07T11:13:30.081Z,1049.00
2023-02-07T11:14:29.954Z,1029.00
2023-02-07T11:15:29.841Z,1066.00
2023-02-07T11:16:29.720Z,1030.00
2023-02-07T11:17:29.641Z,1025.00
2023-02-07T11:18:29.468Z,1044.00
2023-02-07T11:19:29.338Z,1107.00
2023-02-07T11:20:29.224Z,1063.00
2023-02-07T11:21:29.082Z,1041.00
2023-02-07T11:22:28.968Z,1058.00
2023-02-07T11:23:28.807Z,1052.00
2023-02-07T11:24:28.673Z,1089.00
2023-02-07T11:25:28.506Z,1163.00
2023-02-07T11:26:28.392Z,1180.00
2023-02-07T11:27:28.212Z,1215.00
2023-02-07T11:28:28.063Z,1178.00
2023-02-07T11:29:27.905Z,1147.00
2023-02-07T11:30:27.783Z,1161.00
2023-02-07T11:31:27.695Z,1198.00
2023-02-07T11:32:27.432Z,1129.00
2023-02-07T11:33:27.286Z,1097.00
2023-02-07T11:34:27.127Z,1093.00
2023-02-07T11:35:26.968Z,1101.00
2023-02-07T11:36:26.806Z,1123.00
2023-02-07T11:37:26.643Z,1103.00
2023-02-07T11:38:26.475Z,1048.00
2023-02-07T11:39:26.320Z,981.00
2023-02-07T11:40:26.169Z,1016.00
2023-02-07T11:41:26.026Z,989.00
2023-02-07T11:42:25.849Z,1049.00
2023-02-07T11:43:25.699Z,972.00
2023-02-07T11:44:25.526Z,955.00
2023-02-07T11:45:25.419Z,933.00
2023-02-07T11:46:25.249Z,921.00
2023-02-07T11:47:25.035Z,970.00
2023-02-07T11:48:24.891Z,1033.00
2023-02-07T11:49:24.715Z,1024.00
2023-02-07T11:50:24.555Z,1027.00
2023-02-07T11:51:24.392Z,1045.00
2023-02-07T11:52:24.237Z,981.00
2023-02-07T11:53:24.066Z,400.00
2023-02-07T11:54:23.913Z,400.00
2023-02-07T11:55:23.781Z,400.00
2023-02-07T11:56:23.660Z,400.00
2023-02-07T11:57:23.573Z,400.00
2023-02-07T11:58:23.470Z,400.00
2023-02-07T11:59:23.402Z,400.00
2023-02-07T12:00:23.300Z,400.00
2023-02-07T12:01:23.237Z,400.00
2023-02-07T12:02:23.148Z,425.00
2023-02-07T12:03:23.063Z,523.00
2023-02-07T12:04:22.967Z,601.00
2023-02-07T12:05:22.955Z,531.00
2023-02-07T12:06:22.795Z,594.00
2023-02-07T12:07:22.706Z,508.00
2023-02-07T12:08:22.605Z,659.00
2023-02-07T12:09:22.538Z,687.00
2023-02-07T12:10:22.445Z,547.00
2023-02-07T12:11:22.371Z,547.00
2023-02-07T12:12:22.316Z,451.00
2023-02-07T12:13:22.264Z,400.00
2023-02-07T12:14:22.242Z,400.00
2023-02-07T12:15:22.203Z,400.00
2023-02-07T12:16:22.218Z,400.00
2023-02-07T12:17:22.149Z,400.00
2023-02-07T12:18:22.134Z,400.00
2023-02-07T12:19:22.129Z,400.00
2023-02-07T12:20:22.105Z,400.00
2023-02-07T12:21:22.104Z,400.00
2023-02-07T12:22:22.089Z,400.00
2023-02-07T12:23:41.289Z,400.00
2023-02-07T12:24:23.008Z,400.00
2023-02-07T12:25:21.959Z,400.00
2023-02-07T12:26:21.912Z,400.00
2023-02-07T12:27:21.896Z,400.00
2023-02-07T12:28:21.907Z,400.00
2023-02-07T12:29:21.855Z,400.00
2023-02-07T12:30:21.760Z,400.00
2023-02-07T12:31:21.784Z,597.00
2023-02-07T12:32:21.735Z,941.00
2023-02-07T12:33:21.507Z,1345.00
2023-02-07T12:34:21.351Z,1611.00
2023-02-07T12:35:21.223Z,1810.00
2023-02-07T12:36:21.857Z,1976.00
2023-02-07T12:37:20.955Z,2106.00
2023-02-07T12:38:20.846Z,2210.00
2023-02-07T12:39:20.735Z,2319.00
2023-02-07T12:40:20.601Z,2364.00
2023-02-07T12:41:20.513Z,2414.00
2023-02-07T12:42:20.408Z,2487.00
2023-02-07T12:43:20.336Z,2578.00
2023-02-07T12:44:20.233Z,2611.00
2023-02-07T12:45:20.147Z,2630.00
2023-02-07T12:46:20.070Z,2659.00
2023-02-07T12:47:20.002Z,2685.00
2023-02-07T12:48:19.933Z,2678.00
2023-02-07T12:49:19.881Z,2696.00
2023-02-07T12:50:19.805Z,2709.00
2023-02-07T12:51:19.710Z,2714.00
2023-02-07T12:52:19.638Z,2769.00
2023-02-07T12:53:19.570Z,2784.00
2023-02-07T12:54:19.535Z,2788.00
2023-02-07T12:55:19.471Z,2794.00
2023-02-07T12:56:19.381Z,2778.00
2023-02-07T12:57:19.351Z,2759.00
2023-02-07T12:58:19.260Z,2801.00
2023-02-07T12:59:19.196Z,2827.00
2023-02-07T13:00:19.134Z,2835.00
2023-02-07T13:01:19.120Z,2825.00
2023-02-07T13:02:19.021Z,2852.00
2023-02-07T13:03:18.958Z,2845.00
2023-02-07T13:04:18.891Z,2870.00
2023-02-07T13:05:18.860Z,2889.00
2023-02-07T13:06:18.767Z,2875.00
2023-02-07T13:07:18.701Z,2876.00
2023-02-07T13:08:18.660Z,2887.00
2023-02-07T13:09:18.588Z,2858.00
2023-02-07T13:10:18.530Z,2830.00
2023-02-07T13:11:18.462Z,2831.00
2023-02-07T13:12:18.431Z,2834.00
2023-02-07T13:13:18.357Z,2809.00
2023-02-07T13:14:18.306Z,2798.00
2023-02-07T13:15:18.239Z,2808.00
2023-02-07T13:16:18.211Z,2816.00
2023-02-07T13:17:18.128Z,2812.00
2023-02-07T13:18:18.063Z,2803.00
2023-02-07T13:19:18.033Z,2812.00
2023-02-07T13:20:17.964Z,2805.00
2023-02-07T13:21:17.900Z,2784.00
2023-02-07T13:22:17.869Z,2829.00
2023-02-07T13:23:17.800Z,2801.00
2023-02-07T13:24:17.767Z,2795.00
2023-02-07T13:25:17.773Z,2779.00
2023-02-07T13:26:17.638Z,2841.00
2023-02-07T13:27:17.605Z,2834.00
2023-02-07T13:28:17.540Z,2815.00
2023-02-07T13:29:17.467Z,2817.00
2023-02-07T13:30:17.415Z,2786.00
2023-02-07T13:31:17.516Z,2798.00
2023-02-07T13:32:17.341Z,2792.00
2023-02-07T13:33:17.335Z,2806.00
2023-02-07T13:34:17.192Z,2807.00
2023-02-07T13:35:17.126Z,2812.00
2023-02-07T13:36:17.114Z,2805.00
2023-02-07T13:37:17.584Z,2790.00
2023-02-07T13:38:16.958Z,2807.00
2023-02-07T13:39:18.934Z,2800.00
2023-02-07T13:40:16.840Z,2788.00
2023-02-07T13:41:16.792Z,2781.00
2023-02-07T13:42:16.736Z,2830.00
2023-02-07T13:43:16.676Z,2838.00
2023-02-07T13:44:16.631Z,2812.00
2023-02-07T13:45:16.578Z,2803.00
2023-02-07T13:46:16.550Z,2806.00
2023-02-07T13:47:16.462Z,2801.00
2023-02-07T13:48:16.412Z,2808.00
2023-02-07T13:49:16.375Z,2804.00
2023-02-07T13:50:16.313Z,2796.00
2023-02-07T13:51:16.247Z,2805.00
2023-02-07T13:52:16.196Z,2806.00
2023-02-07T13:53:16.149Z,2808.00
2023-02-07T13:54:16.079Z,2817.00
2023-02-07T13:55:16.012Z,2820.00
2023-02-07T13:56:15.968Z,2797.00
2023-02-07T13:57:15.888Z,2810.00
2023-02-07T13:58:15.834Z,2803.00
2023-02-07T13:59:15.782Z,2816.00
2023-02-07T14:00:15.714Z,2819.00
2023-02-07T14:01:15.719Z,2819.00
2023-02-07T14:02:15.585Z,2820.00
2023-02-07T14:03:15.576Z,2822.00
2023-02-07T14:04:15.471Z,2824.00
2023-02-07T14:05:15.434Z,2801.00
2023-02-07T14:06:15.353Z,2788.00
2023-02-07T14:07:15.302Z,2804.00
2023-02-07T14:08:15.249Z,2779.00
2023-02-07T14:09:15.203Z,2762.00
2023-02-07T14:10:15.145Z,2760.00
2023-02-07T14:11:15.069Z,2761.00
2023-02-07T14:12:15.016Z,2760.00
2023-02-07T14:13:14.939Z,2743.00
2023-02-07T14:14:14.881Z,2752.00
2023-02-07T14:15:14.848Z,2734.00
2023-02-07T14:16:14.770Z,2739.00
2023-02-07T14:17:14.711Z,2713.00
2023-02-07T14:18:14.662Z,2724.00
2023-02-07T14:19:14.615Z,2740.00
2023-02-07T14:20:14.559Z,2746.00
2023-02-07T14:21:14.519Z,2727.00
2023-02-07T14:22:14.417Z,2719.00
2023-02-07T14:23:14.348Z,2727.00
2023-02-07T14:24:14.297Z,2694.00
2023-02-07T14:25:14.254Z,2688.00
2023-02-07T14:26:14.170Z,2691.00
2023-02-07T14:27:14.122Z,2687.00
2023-02-07T14:28:14.162Z,2697.00
2023-02-07T14:29:13.999Z,2685.00
2023-02-07T14:30:13.948Z,2684.00
2023-02-07T14:31:13.954Z,2668.00
2023-02-07T14:32:13.841Z,2695.00
2023-02-07T14:33:13.783Z,2687.00
2023-02-07T14:34:13.704Z,2688.00
2023-02-07T14:35:13.647Z,2689.00
2023-02-07T14:36:13.588Z,2681.00
2023-02-07T14:37:13.511Z,2678.00
2023-02-07T14:38:13.459Z,2660.00
2023-02-07T14:39:13.410Z,2665.00
2023-02-07T14:40:13.338Z,2700.00
2023-02-07T14:41:13.275Z,2667.00
2023-02-07T14:42:13.215Z,2663.00
2023-02-07T14:43:13.159Z,2629.00
2023-02-07T14:44:13.100Z,2644.00
2023-02-07T14:45:13.040Z,2631.00
2023-02-07T14:46:13.001Z,2657.00
2023-02-07T14:47:12.912Z,2653.00
2023-02-07T14:48:12.876Z,2629.00
2023-02-07T14:49:12.813Z,2643.00
2023-02-07T14:50:12.789Z,2639.00
2023-02-07T14:51:12.692Z,2620.00
2023-02-07T14:52:12.646Z,2635.00
2023-02-07T14:53:12.607Z,2617.00
2023-02-07T14:54:12.526Z,2610.00
2023-02-07T14:55:12.500Z,2608.00
2023-02-07T14:56:12.446Z,2604.00
2023-02-07T14:57:12.346Z,2606.00
2023-02-07T14:58:12.293Z,2607.00
2023-02-07T14:59:12.215Z,2612.00
2023-02-07T15:00:12.167Z,2615.00
2023-02-07T15:01:12.119Z,2621.00
2023-02-07T15:02:12.060Z,2615.00
2023-02-07T15:03:11.982Z,2613.00
2023-02-07T15:04:11.924Z,2610.00
2023-02-07T15:05:11.861Z,2612.00
2023-02-07T15:06:13.001Z,2613.00
2023-02-07T15:07:11.822Z,2604.00
2023-02-07T15:08:11.760Z,2612.00
2023-02-07T15:09:11.716Z,2591.00
2023-02-07T15:10:11.647Z,2601.00
2023-02-07T15:11:11.612Z,2636.00
2023-02-07T15:12:25.776Z,2591.00
2023-02-07T15:13:12.478Z,2592.00
2023-02-07T15:14:11.421Z,2595.00
2023-02-07T15:15:11.364Z,2595.00
2023-02-07T15:16:11.374Z,2603.00
2023-02-07T15:17:11.256Z,2592.00
2023-02-07T15:18:11.191Z,2594.00
2023-02-07T15:19:11.155Z,2598.00
2023-02-07T15:20:11.092Z,2596.00
2023-02-07T15:21:11.052Z,2592.00
2023-02-07T15:22:25.017Z,2591.00
2023-02-07T15:23:11.946Z,2591.00
2023-02-07T15:24:10.882Z,2591.00
2023-02-07T15:25:10.844Z,2584.00
2023-02-07T15:26:10.768Z,2593.00
2023-02-07T15:27:10.722Z,2593.00
2023-02-07T15:28:18.269Z,2583.00
2023-02-07T15:29:11.615Z,2584.00
2023-02-07T15:30:10.572Z,2578.00
2023-02-07T15:31:10.601Z,2585.00
2023-02-07T15:32:10.520Z,2582.00
2023-02-07T15:33:10.387Z,2555.00
2023-02-07T15:34:10.355Z,2572.00
2023-02-07T15:35:10.294Z,2564.00
2023-02-07T15:36:10.242Z,2580.00
2023-02-07T15:37:10.170Z,2579.00
2023-02-07T15:38:10.114Z,2587.00
2023-02-07T15:39:10.048Z,2585.00
2023-02-07T15:40:10.015Z,2575.00
2023-02-07T15:41:09.961Z,2566.00
2023-02-07T15:42:09.894Z,2564.00
2023-02-07T15:43:09.846Z,2593.00
2023-02-07T15:44:09.781Z,2596.00
2023-02-07T15:45:19.551Z,2552.00
2023-02-07T15:46:10.743Z,2553.00
2023-02-07T15:47:09.639Z,2553.00
2023-02-07T15:48:09.582Z,2561.00
2023-02-07T15:49:09.530Z,2556.00
2023-02-07T15:50:09.496Z,2569.00
2023-02-07T15:51:09.418Z,2576.00
2023-02-07T15:52:09.360Z,2584.00
2023-02-07T15:53:09.309Z,2564.00
2023-02-07T15:54:09.263Z,2592.00
2023-02-07T15:55:09.205Z,2573.00
2023-02-07T15:56:09.168Z,2584.00
2023-02-07T15:57:09.092Z,2594.00
2023-02-07T15:58:09.041Z,2573.00
2023-02-07T15:59:08.989Z,2574.00
2023-02-07T16:00:08.924Z,2571.00
2023-02-07T16:01:08.866Z,2570.00
2023-02-07T16:02:08.831Z,2570.00
2023-02-07T16:03:08.825Z,2566.00
2023-02-07T16:04:08.720Z,2547.00
2023-02-07T16:05:08.695Z,2557.00
2023-02-07T16:06:08.614Z,2588.00
2023-02-07T16:07:08.573Z,2559.00
2023-02-07T16:08:08.523Z,2587.00
2023-02-07T16:09:08.463Z,2563.00
2023-02-07T16:10:08.410Z,2560.00
2023-02-07T16:11:08.361Z,2568.00
2023-02-07T16:12:08.328Z,2557.00
2023-02-07T16:13:08.254Z,2572.00
2023-02-07T16:14:08.198Z,2564.00
2023-02-07T16:15:08.159Z,2577.00
2023-02-07T16:16:08.152Z,2584.00
2023-02-07T16:17:08.042Z,2553.00
2023-02-07T16:18:07.986Z,2547.00
2023-02-07T16:19:07.928Z,2529.00
2023-02-07T16:20:07.888Z,2579.00
2023-02-07T16:21:07.835Z,2539.00
2023-02-07T16:22:07.779Z,2568.00
2023-02-07T16:23:07.716Z,2548.00
2023-02-07T16:24:07.660Z,2565.00
2023-02-07T16:25:07.607Z,2552.00
2023-02-07T16:26:07.578Z,2536.00
2023-02-07T16:27:07.513Z,2538.00
2023-02-07T16:28:07.510Z,2547.00
2023-02-07T16:29:07.396Z,2545.00
2023-02-07T16:30:07.335Z,2541.00
2023-02-07T16:31:07.364Z,2548.00
2023-02-07T16:32:07.346Z,2543.00
2023-02-07T16:33:07.197Z,2546.00
2023-02-07T16:34:07.144Z,2533.00
2023-02-07T16:35:07.096Z,2545.00
2023-02-07T16:36:07.050Z,2533.00
2023-02-07T16:37:06.975Z,2527.00
2023-02-07T16:38:06.923Z,2532.00
2023-02-07T16:39:06.867Z,2528.00
2023-02-07T16:40:06.819Z,2507.00
2023-02-07T16:41:06.769Z,2532.00
2023-02-07T16:42:06.720Z,2548.00
2023-02-07T16:43:06.656Z,2538.00
2023-02-07T16:44:06.608Z,2521.00
2023-02-07T16:45:06.540Z,2530.00
2023-02-07T16:46:06.584Z,2541.00
2023-02-07T16:47:06.437Z,2548.00
2023-02-07T16:48:06.375Z,2513.00
2023-02-07T16:49:06.336Z,2525.00
2023-02-07T16:50:06.324Z,2538.00
2023-02-07T16:51:06.222Z,2544.00
2023-02-07T16:52:06.177Z,2516.00
2023-02-07T16:53:06.113Z,2523.00
2023-02-07T16:54:06.056Z,2497.00
2023-02-07T16:55:06.018Z,2514.00
2023-02-07T16:56:05.944Z,2522.00
2023-02-07T16:57:05.914Z,2509.00
2023-02-07T16:58:05.849Z,2523.00
2023-02-07T16:59:05.802Z,2517.00
2023-02-07T17:00:05.812Z,2504.00
2023-02-07T17:01:05.689Z,2497.00
2023-02-07T17:02:05.738Z,2525.00
2023-02-07T17:03:05.581Z,2514.00
2023-02-07T17:04:05.509Z,2516.00
2023-02-07T17:05:05.448Z,2515.00
2023-02-07T17:06:05.414Z,2504.00
2023-02-07T17:07:05.345Z,2494.00
2023-02-07T17:08:05.293Z,2516.00
2023-02-07T17:09:05.246Z,2514.00
2023-02-07T17:10:05.207Z,2503.00
2023-02-07T17:11:05.141Z,2516.00
2023-02-07T17:12:05.079Z,2517.00
2023-02-07T17:13:05.052Z,2510.00
2023-02-07T17:14:04.978Z,2511.00
2023-02-07T17:15:04.931Z,2521.00
2023-02-07T17:16:04.926Z,2496.00
2023-02-07T17:17:04.812Z,2507.00
2023-02-07T17:18:04.773Z,2528.00
2023-02-07T17:19:04.716Z,2498.00
2023-02-07T17:20:04.745Z,2503.00
2023-02-07T17:21:04.621Z,2496.00
2023-02-07T17:22:04.556Z,2495.00
2023-02-07T17:23:04.532Z,2505.00
2023-02-07T17:24:04.466Z,2499.00
2023-02-07T17:25:04.421Z,2512.00
2023-02-07T17:26:04.362Z,2490.00
2023-02-07T17:27:04.312Z,2479.00
2023-02-07T17:28:04.310Z,2487.00
2023-02-07T17:29:04.227Z,2488.00
2023-02-07T17:30:04.167Z,2462.00
2023-02-07T17:31:04.123Z,2493.00
2023-02-07T17:32:04.062Z,2488.00
2023-02-07T17:33:04.019Z,2486.00
2023-02-07T17:34:03.962Z,2486.00
2023-02-07T17:35:03.922Z,2486.00
2023-02-07T17:36:03.856Z,2489.00
2023-02-07T17:37:03.822Z,2489.00
2023-02-07T17:38:03.769Z,2459.00
2023-02-07T17:39:03.723Z,2498.00
2023-02-07T17:40:03.676Z,2479.00
2023-02-07T17:41:03.624Z,2468.00
2023-02-07T17:42:03.577Z,2475.00
2023-02-07T17:43:03.535Z,2481.00
2023-02-07T17:44:03.469Z,2463.00
2023-02-07T17:45:03.434Z,2471.00
2023-02-07T17:46:03.465Z,2490.00
2023-02-07T17:47:03.373Z,2473.00
2023-02-07T17:48:03.311Z,2473.00
2023-02-07T17:49:03.250Z,2462.00
2023-02-07T17:50:03.243Z,2476.00
2023-02-07T17:51:03.155Z,2466.00
2023-02-07T17:52:03.086Z,2461.00
2023-02-07T17:53:03.085Z,2476.00
2023-02-07T17:54:02.999Z,2472.00
2023-02-07T17:55:02.955Z,2475.00
2023-02-07T17:56:02.898Z,2465.00
2023-02-07T17:57:02.855Z,2469.00
2023-02-07T17:58:02.799Z,2450.00
2023-02-07T17:59:02.755Z,2451.00
2023-02-07T18:00:02.725Z,2453.00
2023-02-07T18:01:02.687Z,2457.00
2023-02-07T18:02:02.663Z,2428.00
2023-02-07T18:03:02.586Z,2445.00
2023-02-07T18:04:02.587Z,2434.00
2023-02-07T18:05:02.483Z,2453.00
2023-02-07T18:06:02.434Z,2453.00
2023-02-07T18:07:02.388Z,2451.00
2023-02-07T18:08:02.338Z,2438.00
2023-02-07T18:09:02.316Z,2444.00
2023-02-07T18:10:02.277Z,2455.00
2023-02-07T18:11:02.235Z,2433.00
2023-02-07T18:12:02.175Z,2441.00
2023-02-07T18:13:02.118Z,2444.00
2023-02-07T18:14:02.063Z,2429.00
2023-02-07T18:15:02.035Z,2437.00
2023-02-07T18:16:02.037Z,2430.00
2023-02-07T18:17:01.912Z,2431.00
2023-02-07T18:18:01.901Z,2423.00
2023-02-07T18:19:01.814Z,2420.00
2023-02-07T18:20:01.763Z,2424.00
2023-02-07T18:21:01.704Z,2429.00
2023-02-07T18:22:01.670Z,2411.00
2023-02-07T18:23:01.622Z,2436.00
2023-02-07T18:24:01.577Z,2429.00
2023-02-07T18:25:01.512Z,2437.00
2023-02-07T18:26:01.463Z,2416.00
2023-02-07T18:27:01.411Z,2422.00
2023-02-07T18:28:01.513Z,2405.00
2023-02-07T18:29:01.338Z,2396.00
2023-02-07T18:30:01.272Z,2413.00
2023-02-07T18:31:01.331Z,2411.00
2023-02-07T18:32:01.189Z,2409.00
2023-02-07T18:33:01.147Z,2405.00
2023-02-07T18:34:01.087Z,2400.00
2023-02-07T18:35:01.045Z,2414.00
2023-02-07T18:36:01.004Z,2414.00
2023-02-07T18:37:00.947Z,2407.00
2023-02-07T18:38:00.906Z,2394.00
2023-02-07T18:39:00.871Z,2408.00
2023-02-07T18:40:00.849Z,2414.00
2023-02-07T18:41:00.752Z,2395.00
2023-02-07T18:42:00.704Z,2398.00
2023-02-07T18:43:00.649Z,2404.00
2023-02-07T18:44:00.620Z,2414.00
2023-02-07T18:45:00.569Z,2394.00
2023-02-07T18:46:00.533Z,2390.00
2023-02-07T18:47:00.485Z,2388.00
2023-02-07T18:48:00.418Z,2375.00
2023-02-07T18:49:00.378Z,2393.00
2023-02-07T18:50:00.321Z,2393.00
2023-02-07T18:51:00.310Z,2385.00
2023-02-07T18:52:00.253Z,2379.00
2023-02-07T18:53:00.184Z,2364.00